Time;durP1;ratioP1;P1;durP2;ratioP2;P2;SDS_P1;SDS_P2;PMS_P1;PMS_P2;Temp;Humidity;BMP_temperature;BMP_pressure;BME280_temperature;BME280_humidity;BME280_pressure;Samples;Min_cycle;Max_cycle;Signal;HPM_P1;HPM_P2
2022/11/28 00:00:33;;;;;;;79.72;42.62;;;;;;;-0.41;100.00;98830.45;1675138;85;20994;-83
2022/11/28 00:03:02;;;;;;;88.67;38.45;;;;;;;-0.45;100.00;98834.48;1675083;84;24508;-83
2022/11/28 00:05:29;;;;;;;69.92;33.00;;;;;;;-0.44;100.00;98828.14;1675149;85;21004;-79
2022/11/28 00:07:56;;;;;;;58.45;29.42;;;;;;;-0.44;100.00;98829.47;1675201;85;20985;-80
2022/11/28 00:10:23;;;;;;;49.58;27.02;;;;;;;-0.47;100.00;98821.88;1675035;85;21008;-79
2022/11/28 00:12:50;;;;;;;51.13;27.65;;;;;;;-0.49;100.00;98833.23;1675343;85;21429;-82
2022/11/28 00:15:16;;;;;;;49.00;26.87;;;;;;;-0.49;100.00;98830.56;1675222;85;20993;-80
2022/11/28 00:17:44;;;;;;;52.13;27.25;;;;;;;-0.50;100.00;98832.91;1675221;85;21017;-82
2022/11/28 00:20:11;;;;;;;58.20;29.52;;;;;;;-0.52;100.00;98834.09;1675124;85;21524;-83
2022/11/28 00:22:38;;;;;;;56.88;28.20;;;;;;;-0.55;100.00;98838.48;1675165;85;21024;-83
2022/11/28 00:25:06;;;;;;;66.67;31.55;;;;;;;-0.57;100.00;98838.67;1675121;85;21520;-79
2022/11/28 00:27:34;;;;;;;74.05;37.58;;;;;;;-0.60;100.00;98844.35;1675266;85;21040;-83
2022/11/28 00:30:01;;;;;;;60.90;33.33;;;;;;;-0.59;100.00;98852.18;1675164;85;21655;-80
2022/11/28 00:32:28;;;;;;;52.38;29.10;;;;;;;-0.59;100.00;98850.84;1674739;85;21217;-79
2022/11/28 00:34:55;;;;;;;49.85;27.48;;;;;;;-0.57;100.00;98857.31;1674199;85;21014;-83
2022/11/28 00:37:22;;;;;;;50.05;27.40;;;;;;;-0.55;100.00;98857.94;1673653;84;21017;-82
2022/11/28 00:39:49;;;;;;;48.30;25.40;;;;;;;-0.52;100.00;98860.22;1643309;86;21034;-77
2022/11/28 00:42:19;;;;;;;45.50;22.20;;;;;;;-0.49;100.00;98861.19;1674066;85;21644;-77
2022/11/28 00:44:44;;;;;;;47.40;24.00;;;;;;;-0.44;100.00;98854.77;1675337;85;26531;-77
2022/11/28 00:47:11;;;;;;;48.10;25.62;;;;;;;-0.40;100.00;98869.38;1675130;85;21523;-77
2022/11/28 00:49:38;;;;;;;73.50;34.92;;;;;;;-0.35;100.00;98862.13;1675571;84;21024;-77
2022/11/28 00:52:05;;;;;;;85.03;40.78;;;;;;;-0.27;100.00;98863.34;1675339;84;21062;-80
2022/11/28 00:54:32;;;;;;;71.35;37.67;;;;;;;-0.21;100.00;98856.45;1675185;84;21578;-80
2022/11/28 00:56:59;;;;;;;60.85;32.50;;;;;;;-0.18;100.00;98856.05;1675200;85;21477;-77
2022/11/28 00:59:26;;;;;;;56.18;29.80;;;;;;;-0.18;100.00;98845.40;1675301;85;21035;-80
2022/11/28 01:01:53;;;;;;;52.93;27.27;;;;;;;-0.14;100.00;98848.02;1675282;85;21016;-77
2022/11/28 01:04:20;;;;;;;63.60;32.88;;;;;;;-0.13;100.00;98843.00;1675257;85;21056;-77
2022/11/28 01:06:48;;;;;;;71.33;36.88;;;;;;;-0.07;100.00;98836.91;1675262;85;21730;-79
2022/11/28 01:09:19;;;;;;;88.67;44.27;;;;;;;0.01;100.00;98831.96;1675186;84;21033;-77
2022/11/28 01:11:47;;;;;;;80.30;41.85;;;;;;;0.09;100.00;98833.98;1674574;83;21045;-80
2022/11/28 01:14:17;;;;;;;70.90;35.13;;;;;;;0.15;100.00;98830.52;1675325;84;21454;-77
2022/11/28 01:16:44;;;;;;;60.98;31.70;;;;;;;0.22;100.00;98823.92;1654156;85;21032;-80
2022/11/28 01:19:11;;;;;;;57.15;29.10;;;;;;;0.26;100.00;98815.86;1675120;85;20961;-80
2022/11/28 01:21:38;;;;;;;61.50;30.57;;;;;;;0.29;100.00;98814.13;1674982;85;21032;-77
2022/11/28 01:24:05;;;;;;;66.90;34.90;;;;;;;0.34;100.00;98799.69;1675142;85;21056;-77
2022/11/28 01:26:32;;;;;;;61.85;30.82;;;;;;;0.37;100.00;98806.49;1675119;85;21445;-82
2022/11/28 01:28:59;;;;;;;58.15;28.25;;;;;;;0.37;100.00;98800.66;1675156;85;21032;-80
2022/11/28 01:31:28;;;;;;;63.98;36.17;;;;;;;0.39;100.00;98786.61;1673823;85;21768;-77
2022/11/28 01:33:55;;;;;;;70.87;39.33;;;;;;;0.40;100.00;98788.25;1640032;86;21504;-80
2022/11/28 01:36:22;;;;;;;63.13;33.60;;;;;;;0.41;100.00;98786.41;1671988;85;21003;-77
2022/11/28 01:38:49;;;;;;;56.88;28.67;;;;;;;0.45;100.00;98794.34;1671919;84;22167;-77
2022/11/28 01:41:19;;;;;;;56.18;28.83;;;;;;;0.43;100.00;98789.72;1671884;85;20992;-81
2022/11/28 01:44:02;;;;;;;53.68;25.72;;;;;;;0.41;100.00;98789.89;1675179;85;21017;-77
2022/11/28 01:46:29;;;;;;;52.60;24.37;;;;;;;0.36;100.00;98772.86;1675082;84;21445;-77
2022/11/28 01:49:00;;;;;;;44.58;23.10;;;;;;;0.32;100.00;98769.73;1675267;85;20977;-80
2022/11/28 01:51:27;;;;;;;49.18;25.23;;;;;;;0.25;100.00;98766.20;1675084;85;21028;-77
2022/11/28 01:53:54;;;;;;;47.45;24.15;;;;;;;0.20;100.00;98771.31;1675435;85;21055;-77
2022/11/28 01:56:25;;;;;;;46.00;23.38;;;;;;;0.23;100.00;98766.91;1675181;85;21626;-77
2022/11/28 01:58:56;;;;;;;43.78;22.85;;;;;;;0.21;100.00;98763.63;1675086;85;21068;-77
2022/11/28 02:01:23;;;;;;;45.20;24.07;;;;;;;0.22;100.00;98759.42;1675115;85;21005;-80
2022/11/28 02:03:50;;;;;;;47.75;23.25;;;;;;;0.26;100.00;98754.55;1675292;85;21009;-80
2022/11/28 02:06:20;;;;;;;47.78;23.65;;;;;;;0.29;100.00;98743.48;1675221;85;20987;-77
2022/11/28 02:08:51;;;;;;;45.88;21.30;;;;;;;0.30;100.00;98744.30;1675074;85;21046;-80
2022/11/28 02:11:41;;;;;;;45.48;23.07;;;;;;;0.30;100.00;98734.97;1675057;85;21033;-77
2022/11/28 02:14:27;;;;;;;34.15;20.02;;;;;;;0.31;100.00;98734.77;1674887;84;21032;-77
2022/11/28 02:17:15;;;;;;;40.83;22.85;;;;;;;0.31;100.00;98733.95;1674497;85;21049;-80
2022/11/28 02:20:25;;;;;;;40.85;20.90;;;;;;;0.33;100.00;98734.56;1668835;85;21064;-77
2022/11/28 02:23:27;;;;;;;50.03;27.22;;;;;;;0.31;100.00;98725.44;1674949;85;21017;-77
2022/11/28 02:25:59;;;;;;;46.63;24.27;;;;;;;0.28;100.00;98729.33;1675279;85;21426;-77
2022/11/28 02:28:58;;;;;;;44.27;22.62;;;;;;;0.28;100.00;98727.17;1666149;85;21071;-77
2022/11/28 02:31:50;;;;;;;49.18;25.05;;;;;;;0.28;100.00;98729.33;1675327;85;21005;-77
2022/11/28 02:34:27;;;;;;;47.27;22.90;;;;;;;0.27;100.00;98730.35;1673608;85;20977;-80
2022/11/28 02:37:07;;;;;;;45.35;23.30;;;;;;;0.25;100.00;98732.88;1682553;85;21236;-80
2022/11/28 02:40:12;;;;;;;41.80;23.90;;;;;;;0.26;100.00;98724.71;1653741;85;20961;-77
2022/11/28 02:43:06;;;;;;;45.65;24.02;;;;;;;0.25;100.00;98719.04;1678033;85;21501;-77
2022/11/28 02:46:11;;;;;;;44.42;24.50;;;;;;;0.24;100.00;98712.06;1675260;85;20978;-80
2022/11/28 02:48:47;;;;;;;48.98;24.50;;;;;;;0.25;100.00;98707.55;1663442;85;21045;-77
2022/11/28 02:51:37;;;;;;;42.08;24.90;;;;;;;0.24;100.00;98705.40;1663303;86;21880;-80
2022/11/28 02:54:05;;;;;;;50.08;25.95;;;;;;;0.27;100.00;98703.70;1669473;85;20989;-77
2022/11/28 02:56:32;;;;;;;55.48;28.07;;;;;;;0.28;100.00;98704.52;1675246;85;20989;-77
2022/11/28 02:58:59;;;;;;;55.33;31.35;;;;;;;0.34;100.00;98706.88;1675055;85;21009;-78
2022/11/28 03:01:35;;;;;;;55.25;29.27;;;;;;;0.39;100.00;98709.79;1675058;85;21552;-77
2022/11/28 03:04:22;;;;;;;49.18;27.70;;;;;;;0.39;100.00;98705.80;1675048;85;21076;-80
2022/11/28 03:07:14;;;;;;;51.02;25.20;;;;;;;0.39;100.00;98704.46;1674772;85;21347;-80
2022/11/28 03:10:03;;;;;;;50.75;24.50;;;;;;;0.36;100.00;98695.53;1675269;85;21465;-76
2022/11/28 03:12:51;;;;;;;;;;;;;;;0.36;100.00;98690.20;1677552;85;21095;-80
2022/11/28 03:15:22;;;;;;;49.95;22.90;;;;;;;0.36;100.00;98693.69;1675514;85;20206;-77
2022/11/28 03:17:55;;;;;;;46.30;21.50;;;;;;;0.37;100.00;98696.66;1675049;85;21059;-77
2022/11/28 03:20:43;;;;;;;47.67;21.65;;;;;;;0.36;100.00;98684.87;1675123;85;21089;-77
2022/11/28 03:23:24;;;;;;;41.55;21.73;;;;;;;0.30;100.00;98685.14;1675176;85;21001;-77
2022/11/28 03:26:07;;;;;;;50.12;24.25;;;;;;;0.22;100.00;98684.79;1654022;85;21091;-83
2022/11/28 03:29:00;;;;;;;51.77;25.17;;;;;;;0.19;100.00;98681.20;1653548;85;21005;-82
2022/11/28 03:31:38;;;;;;;43.98;22.77;;;;;;;0.16;100.00;98674.08;1675164;85;21068;-80
2022/11/28 03:34:08;;;;;;;46.33;21.57;;;;;;;0.12;100.00;98677.67;1677687;85;21021;-79
2022/11/28 03:36:44;;;;;;;49.40;21.30;;;;;;;0.11;100.00;98678.69;1682552;84;21004;-83
2022/11/28 03:39:13;;;;;;;45.45;22.50;;;;;;;0.06;100.00;98677.63;1681332;85;21017;-80
2022/11/28 03:42:00;;;;;;;50.23;24.80;;;;;;;0.01;100.00;98680.07;1681103;84;21008;-77
2022/11/28 03:44:34;;;;;;;40.70;23.02;;;;;;;-0.02;100.00;98676.75;1674790;85;21615;-80
2022/11/28 03:47:01;;;;;;;39.85;21.37;;;;;;;-0.08;100.00;98668.75;1675089;84;21456;-80
2022/11/28 03:49:32;;;;;;;43.80;22.50;;;;;;;-0.12;100.00;98676.29;1674935;85;20993;-80
2022/11/28 03:52:09;;;;;;;47.15;23.20;;;;;;;-0.16;100.00;98676.38;1675080;85;21024;-77
2022/11/28 03:54:55;;;;;;;41.00;22.75;;;;;;;-0.22;100.00;98674.99;1674815;84;21020;-76
2022/11/28 03:57:40;;;;;;;42.15;22.42;;;;;;;-0.28;100.00;98671.26;1675024;83;21021;-80
2022/11/28 04:00:09;;;;;;;48.38;23.30;;;;;;;-0.25;100.00;98670.89;1669885;85;21012;-80
2022/11/28 04:03:03;;;;;;;43.13;22.48;;;;;;;-0.23;100.00;98672.84;1674894;85;21480;-77
2022/11/28 04:05:57;;;;;;;45.38;23.45;;;;;;;-0.23;100.00;98676.02;1674573;85;21020;-80
2022/11/28 04:08:31;;;;;;;41.23;23.15;;;;;;;-0.20;100.00;98685.76;1675095;85;21497;-77
2022/11/28 04:11:12;;;;;;;40.78;22.15;;;;;;;-0.15;100.00;98674.53;1664829;85;21680;-80
2022/11/28 04:13:58;;;;;;;40.90;22.02;;;;;;;-0.12;100.00;98672.80;1674856;85;21004;-77
2022/11/28 04:16:35;;;;;;;44.60;25.92;;;;;;;-0.07;100.00;98674.38;1675194;85;21104;-77
2022/11/28 04:19:19;;;;;;;45.70;25.48;;;;;;;-0.05;100.00;98675.00;1675133;85;21468;-80
2022/11/28 04:22:03;;;;;;;49.53;25.88;;;;;;;-0.01;100.00;98672.25;1675163;85;21012;-80
2022/11/28 04:24:44;;;;;;;42.13;21.05;;;;;;;-0.01;100.00;98670.41;1674635;85;21061;-81
2022/11/28 04:27:15;;;;;;;39.23;21.80;;;;;;;0.03;100.00;98667.37;1675177;85;21108;-77
2022/11/28 04:29:45;;;;;;;42.15;22.73;;;;;;;0.03;100.00;98676.69;1675420;85;21076;-79
2022/11/28 04:32:13;;;;;;;41.45;22.65;;;;;;;0.04;100.00;98675.16;1675246;85;21004;-77
2022/11/28 04:34:42;;;;;;;37.25;21.57;;;;;;;0.07;100.00;98672.09;1679577;85;21068;-80
2022/11/28 04:37:10;;;;;;;43.45;22.85;;;;;;;0.09;100.00;98666.08;1653602;85;21025;-81
2022/11/28 04:39:36;;;;;;;45.45;24.40;;;;;;;0.08;100.00;98661.73;1682860;84;21048;-80
2022/11/28 04:42:12;;;;;;;43.25;22.42;;;;;;;0.10;100.00;98659.72;1680175;85;20981;-80
2022/11/28 04:45:00;;;;;;;44.20;22.70;;;;;;;0.12;100.00;98655.02;1674511;84;21111;-80
2022/11/28 04:47:26;;;;;;;45.50;25.17;;;;;;;0.12;100.00;98655.52;1674226;83;21021;-77
2022/11/28 04:49:53;;;;;;;40.12;19.95;;;;;;;0.15;100.00;98645.28;1675270;85;21620;-80
2022/11/28 04:52:48;;;;;;;41.40;21.00;;;;;;;0.19;100.00;98646.55;1675195;85;21028;-77
2022/11/28 04:55:23;;;;;;;41.08;21.00;;;;;;;0.16;100.00;98642.92;1671900;85;21044;-80
2022/11/28 04:57:54;;;;;;;42.25;21.70;;;;;;;0.16;100.00;98641.59;1674056;84;21002;-80
2022/11/28 05:00:21;;;;;;;44.03;22.00;;;;;;;0.15;100.00;98641.28;1649865;85;21073;-81
2022/11/28 05:02:50;;;;;;;40.80;22.85;;;;;;;0.11;100.00;98637.89;1643308;86;21447;-78
2022/11/28 05:05:19;;;;;;;;;;;;;;;0.04;100.00;98641.03;1655084;85;21030;-77
2022/11/28 05:07:47;;;;;;;43.13;20.77;;;;;;;0.01;100.00;98639.59;1673771;84;20168;-78
2022/11/28 05:10:14;;;;;;;41.88;22.82;;;;;;;-0.03;100.00;98638.32;1673839;84;20987;-77
2022/11/28 05:12:41;;;;;;;36.17;19.87;;;;;;;-0.07;100.00;98643.23;1673546;84;21443;-77
2022/11/28 05:15:10;;;;;;;34.90;20.02;;;;;;;-0.11;100.00;98643.80;1673936;85;21044;-78
2022/11/28 05:17:37;;;;;;;42.95;19.75;;;;;;;-0.18;100.00;98649.59;1673776;84;21082;-77
2022/11/28 05:20:06;;;;;;;36.05;20.25;;;;;;;-0.21;100.00;98646.83;1643465;86;20991;-77
2022/11/28 05:22:33;;;;;;;40.03;19.60;;;;;;;-0.24;100.00;98647.73;1673670;84;21059;-77
2022/11/28 05:25:00;;;;;;;35.92;20.02;;;;;;;-0.25;100.00;98650.91;1673952;85;21070;-80
2022/11/28 05:27:27;;;;;;;37.65;19.42;;;;;;;-0.28;100.00;98649.95;1643253;86;21021;-81
2022/11/28 05:29:54;;;;;;;33.30;19.20;;;;;;;-0.33;100.00;98643.89;1652419;85;21046;-77
2022/11/28 05:32:22;;;;;;;37.60;19.98;;;;;;;-0.36;100.00;98646.10;1643017;87;21502;-81
2022/11/28 05:34:49;;;;;;;39.23;20.52;;;;;;;-0.39;100.00;98646.50;1673844;85;21083;-78
2022/11/28 05:37:16;;;;;;;38.80;20.65;;;;;;;-0.42;100.00;98645.56;1643357;86;21070;-77
2022/11/28 05:39:42;;;;;;;41.35;22.70;;;;;;;-0.49;100.00;98644.19;1673819;85;21030;-81
2022/11/28 05:42:09;;;;;;;37.63;19.87;;;;;;;-0.52;100.00;98654.38;1644469;87;21029;-81
2022/11/28 05:44:37;;;;;;;46.23;23.65;;;;;;;-0.58;100.00;98656.81;1628881;88;20991;-81
2022/11/28 05:47:03;;;;;;;43.70;20.90;;;;;;;-0.59;100.00;98657.84;1628919;88;21028;-77
2022/11/28 05:49:30;;;;;;;48.40;23.50;;;;;;;-0.62;100.00;98658.70;1675066;85;21487;-81
2022/11/28 05:51:57;;;;;;;39.67;21.12;;;;;;;-0.61;100.00;98663.84;1675348;85;21029;-77
2022/11/28 05:54:24;;;;;;;37.25;21.87;;;;;;;-0.61;100.00;98662.50;1675057;85;20973;-77
2022/11/28 05:56:51;;;;;;;40.60;23.42;;;;;;;-0.62;100.00;98662.70;1675014;85;21611;-78
2022/11/28 05:59:18;;;;;;;44.80;24.00;;;;;;;-0.63;100.00;98667.20;1673818;85;20989;-77
2022/11/28 06:01:45;;;;;;;36.13;19.52;;;;;;;-0.61;100.00;98667.01;1663973;85;21002;-78
2022/11/28 06:04:12;;;;;;;42.15;23.77;;;;;;;-0.59;100.00;98670.33;1642954;86;21583;-77
2022/11/28 06:06:39;;;;;;;48.73;23.57;;;;;;;-0.58;100.00;98666.64;1674129;85;21068;-81
2022/11/28 06:09:05;;;;;;;37.45;21.42;;;;;;;-0.60;100.00;98665.98;1670463;85;21013;-81
2022/11/28 06:11:33;;;;;;;39.42;19.50;;;;;;;-0.60;100.00;98664.66;1675053;84;21528;-77
2022/11/28 06:14:01;;;;;;;40.90;22.00;;;;;;;-0.60;100.00;98662.84;1675054;85;20996;-81
2022/11/28 06:16:29;;;;;;;42.67;25.23;;;;;;;-0.60;100.00;98668.17;1625570;87;21693;-79
2022/11/28 06:18:58;;;;;;;38.73;20.30;;;;;;;-0.59;100.00;98663.16;1615178;88;21523;-77
2022/11/28 06:21:25;;;;;;;52.78;26.00;;;;;;;-0.55;100.00;98666.25;1615787;88;20997;-80
2022/11/28 06:23:52;;;;;;;36.10;20.62;;;;;;;-0.53;100.00;98661.55;1616822;88;21053;-81
2022/11/28 06:26:21;;;;;;;51.58;24.43;;;;;;;-0.52;100.00;98657.05;1600092;88;21525;-80
2022/11/28 06:28:48;;;;;;;51.75;29.07;;;;;;;-0.49;100.00;98650.02;1608554;88;21544;-81
2022/11/28 06:31:18;;;;;;;56.48;29.27;;;;;;;-0.46;100.00;98654.95;1616525;88;21029;-77
2022/11/28 06:33:45;;;;;;;44.00;25.68;;;;;;;-0.40;100.00;98650.19;1628801;86;21008;-78
2022/11/28 06:36:14;;;;;;;69.45;36.28;;;;;;;-0.37;100.00;98643.13;1623942;86;21526;-78
2022/11/28 06:38:40;;;;;;;81.70;49.20;;;;;;;-0.35;100.00;98651.23;1652131;86;21527;-81
2022/11/28 06:41:10;;;;;;;124.95;66.80;;;;;;;-0.33;100.00;98653.72;1663522;85;21401;-77
2022/11/28 06:43:37;;;;;;;97.53;51.42;;;;;;;-0.29;100.00;98645.64;1651768;86;20972;-77
2022/11/28 06:46:04;;;;;;;65.65;33.55;;;;;;;-0.31;100.00;98651.68;1651044;86;20951;-80
2022/11/28 06:48:31;;;;;;;54.85;30.45;;;;;;;-0.31;100.00;98651.68;1639861;86;21045;-81
2022/11/28 06:51:03;;;;;;;75.40;40.30;;;;;;;-0.26;100.00;98651.08;1646752;86;21000;-77
2022/11/28 06:53:29;;;;;;;64.32;38.42;;;;;;;-0.27;100.00;98652.10;1639421;85;21472;-77
2022/11/28 06:55:56;;;;;;;58.00;34.85;;;;;;;-0.26;100.00;98662.55;1650911;85;21082;-81
2022/11/28 06:58:23;;;;;;;57.00;31.40;;;;;;;-0.20;100.00;98660.45;1646479;85;21061;-80
2022/11/28 07:00:50;;;;;;;42.43;25.30;;;;;;;-0.17;100.00;98665.41;1649159;85;21073;-78
2022/11/28 07:03:17;;;;;;;38.53;23.30;;;;;;;-0.15;100.00;98667.87;1651845;86;20960;-77
2022/11/28 07:05:44;;;;;;;38.23;21.57;;;;;;;-0.16;100.00;98659.06;1650700;86;21030;-78
2022/11/28 07:08:11;;;;;;;39.48;20.90;;;;;;;-0.15;100.00;98663.37;1642747;85;21375;-81
2022/11/28 07:10:38;;;;;;;38.05;20.52;;;;;;;-0.11;100.00;98659.79;1595232;88;21076;-77
2022/11/28 07:13:05;;;;;;;42.25;21.77;;;;;;;-0.12;100.00;98666.14;1668695;82;21603;-81
2022/11/28 07:15:31;;;;;;;36.73;21.40;;;;;;;-0.08;100.00;98660.75;1669476;84;21390;-81
2022/11/28 07:17:58;;;;;;;39.58;21.10;;;;;;;-0.04;100.00;98652.66;1645557;85;21028;-80
2022/11/28 07:20:25;;;;;;;52.48;27.87;;;;;;;-0.06;100.00;98656.05;1677926;84;20989;-81
2022/11/28 07:22:52;;;;;;;48.15;26.65;;;;;;;0.01;100.00;98656.09;1667473;84;21441;-77
2022/11/28 07:25:19;;;;;;;49.10;27.40;;;;;;;-0.01;100.00;98649.09;1673517;84;21085;-77
2022/11/28 07:27:46;;;;;;;51.02;28.20;;;;;;;-0.03;100.00;98646.31;1666223;84;21086;-81
2022/11/28 07:30:13;;;;;;;53.92;27.62;;;;;;;0.03;100.00;98647.38;1670177;84;21096;-77
2022/11/28 07:32:40;;;;;;;73.42;37.73;;;;;;;0.08;100.00;98652.92;1679393;83;21471;-80
2022/11/28 07:35:07;;;;;;;53.60;29.50;;;;;;;0.16;100.00;98643.44;1667865;84;21147;-81
2022/11/28 07:37:35;;;;;;;72.20;37.78;;;;;;;0.27;100.00;98649.05;1670934;84;21054;-81
2022/11/28 07:40:02;;;;;;;88.47;49.98;;;;;;;0.37;100.00;98648.67;1665276;84;21279;-81
2022/11/28 07:42:29;;;;;;;89.80;45.63;;;;;;;0.49;100.00;98644.91;1648292;85;21688;-81
2022/11/28 07:44:56;;;;;;;134.47;68.72;;;;;;;0.58;100.00;98642.38;1646015;85;21485;-80
2022/11/28 07:47:23;;;;;;;124.87;67.75;;;;;;;0.68;100.00;98641.98;1680242;83;21032;-78
2022/11/28 07:49:50;;;;;;;128.55;72.05;;;;;;;0.76;100.00;98636.47;1670651;84;21027;-80
2022/11/28 07:52:17;;;;;;;53.70;33.35;;;;;;;0.80;100.00;98638.55;1669730;83;21060;-81
2022/11/28 07:54:44;;;;;;;71.80;39.13;;;;;;;0.84;100.00;98639.77;1668768;83;21064;-80
2022/11/28 07:57:11;;;;;;;64.95;37.08;;;;;;;0.82;100.00;98640.50;1670249;83;21670;-78
2022/11/28 07:59:37;;;;;;;65.32;33.83;;;;;;;0.81;100.00;98637.52;1668684;84;21052;-81
2022/11/28 08:02:04;;;;;;;104.92;56.45;;;;;;;0.80;100.00;98643.06;1669875;83;21040;-78
2022/11/28 08:04:31;;;;;;;119.17;65.35;;;;;;;0.78;100.00;98629.93;1647751;84;21091;-80
2022/11/28 08:06:58;;;;;;;122.42;58.98;;;;;;;0.82;100.00;98635.67;1672742;84;21004;-80
2022/11/28 08:09:25;;;;;;;90.57;46.95;;;;;;;0.81;100.00;98634.85;1672083;84;20920;-80
2022/11/28 08:11:52;;;;;;;79.20;42.98;;;;;;;0.81;100.00;98632.19;1663408;84;21144;-78
2022/11/28 08:14:19;;;;;;;142.77;60.58;;;;;;;0.82;100.00;98625.82;1674758;84;21511;-78
2022/11/28 08:16:46;;;;;;;79.90;42.17;;;;;;;0.92;100.00;98615.27;1684210;83;21125;-81
2022/11/28 08:19:13;;;;;;;99.15;47.55;;;;;;;1.01;100.00;98623.38;1671563;84;21813;-77
2022/11/28 08:21:40;;;;;;;77.25;37.90;;;;;;;1.06;100.00;98618.27;1667882;84;21021;-77
2022/11/28 08:24:07;;;;;;;75.45;42.25;;;;;;;1.08;100.00;98621.03;1669679;84;20985;-78
2022/11/28 08:26:34;;;;;;;61.42;35.17;;;;;;;1.09;100.00;98624.52;1669005;84;21139;-81
2022/11/28 08:29:01;;;;;;;51.65;30.72;;;;;;;1.09;100.00;98616.00;1669981;82;21126;-81
2022/11/28 08:31:34;;;;;;;54.42;31.17;;;;;;;1.13;100.00;98619.92;1650879;84;21031;-80
2022/11/28 08:34:04;;;;;;;59.60;32.08;;;;;;;1.16;100.00;98624.02;1665234;84;21056;-77
2022/11/28 08:36:30;;;;;;;63.87;34.53;;;;;;;1.19;100.00;98610.77;1673708;84;21119;-81
2022/11/28 08:39:01;;;;;;;60.98;31.00;;;;;;;1.23;100.00;98620.84;1665533;82;21047;-80
2022/11/28 08:41:28;;;;;;;53.40;26.57;;;;;;;1.26;100.00;98613.75;1665412;84;21041;-78
2022/11/28 08:43:55;;;;;;;58.42;28.80;;;;;;;1.29;100.00;98617.88;1671279;84;21076;-80
2022/11/28 08:46:22;;;;;;;58.87;30.65;;;;;;;1.32;100.00;98605.44;1667192;84;21103;-81
2022/11/28 08:48:50;;;;;;;63.00;34.23;;;;;;;1.38;100.00;98604.63;1663549;84;21107;-78
2022/11/28 08:51:22;;;;;;;57.43;31.20;;;;;;;1.44;100.00;98602.95;1664985;84;21034;-81
2022/11/28 08:53:49;;;;;;;58.15;31.62;;;;;;;1.51;100.00;98607.78;1664793;84;20961;-78
2022/11/28 08:56:16;;;;;;;53.73;29.92;;;;;;;1.57;100.00;98598.95;1592926;87;21059;-77
2022/11/28 08:58:43;;;;;;;50.95;28.17;;;;;;;1.64;100.00;98597.91;1611524;87;21101;-78
2022/11/28 09:01:21;;;;;;;52.80;28.40;;;;;;;1.75;100.00;98594.29;1641083;85;21600;-81
2022/11/28 09:03:48;;;;;;;52.38;29.72;;;;;;;1.84;100.00;98593.03;1666131;84;20978;-81
2022/11/28 09:06:15;;;;;;;56.50;29.65;;;;;;;1.89;100.00;98581.21;1665282;84;21099;-78
2022/11/28 09:08:42;;;;;;;55.15;28.10;;;;;;;1.94;100.00;98584.88;1663248;84;21044;-82
2022/11/28 09:11:11;;;;;;;43.85;23.73;;;;;;;2.00;100.00;98583.73;1663309;84;21080;-78
2022/11/28 09:13:39;;;;;;;59.98;30.37;;;;;;;2.02;100.00;98585.16;1669140;84;21013;-81
2022/11/28 09:16:06;;;;;;;44.18;24.63;;;;;;;2.07;100.00;98582.69;1672057;84;21066;-78
2022/11/28 09:18:33;;;;;;;44.13;25.52;;;;;;;2.17;100.00;98587.06;1674332;84;21071;-81
2022/11/28 09:21:02;;;;;;;39.10;24.77;;;;;;;2.21;100.00;98581.58;1669115;84;21068;-81
2022/11/28 09:23:29;;;;;;;;;;;;;;;2.26;100.00;98574.27;1672912;84;21598;-77
2022/11/28 09:25:56;;;;;;;34.92;18.75;;;;;;;2.34;100.00;98576.70;1669951;84;20199;-78
2022/11/28 09:28:27;;;;;;;34.13;18.35;;;;;;;2.41;100.00;98573.48;1673408;84;21055;-78
2022/11/28 09:31:01;;;;;;;39.25;20.45;;;;;;;2.48;100.00;98564.09;1665151;84;21025;-81
2022/11/28 09:33:28;;;;;;;49.10;25.08;;;;;;;2.57;100.00;98563.33;1667686;84;21043;-81
2022/11/28 09:35:57;;;;;;;41.40;24.35;;;;;;;2.68;100.00;98567.98;1665281;84;21005;-78
2022/11/28 09:38:24;;;;;;;44.60;25.55;;;;;;;2.76;100.00;98558.36;1670840;84;21072;-81
2022/11/28 09:40:51;;;;;;;46.23;28.45;;;;;;;2.85;100.00;98555.72;1671252;83;21066;-81
2022/11/28 09:43:34;;;;;;;33.42;20.17;;;;;;;2.96;100.00;98560.36;1672247;84;20997;-81
2022/11/28 09:46:04;;;;;;;33.88;19.12;;;;;;;3.06;100.00;98559.36;1672300;84;21182;-78
2022/11/28 09:48:37;;;;;;;26.27;14.53;;;;;;;3.17;100.00;98548.47;1669701;84;21050;-78
2022/11/28 09:51:42;;;;;;;24.95;13.30;;;;;;;3.30;100.00;98548.34;1684154;84;21156;-78
2022/11/28 09:54:35;;;;;;;23.20;12.23;;;;;;;3.51;100.00;98544.45;1614012;87;21145;-77
2022/11/28 09:57:03;;;;;;;44.25;18.62;;;;;;;3.67;100.00;98541.20;1614320;88;21510;-81
2022/11/28 09:59:30;;;;;;;57.67;27.00;;;;;;;3.78;100.00;98536.13;1644722;84;21087;-81
2022/11/28 10:02:11;;;;;;;29.32;15.78;;;;;;;3.88;100.00;98534.56;1670961;84;21096;-78
2022/11/28 10:05:07;;;;;;;50.85;22.07;;;;;;;3.99;100.00;98535.66;1666841;84;21586;-81
2022/11/28 10:08:06;;;;;;;30.25;15.00;;;;;;;4.09;100.00;98526.56;1665611;84;21788;-81
2022/11/28 10:10:49;;;;;;;27.00;13.30;;;;;;;4.30;100.00;98525.28;1664607;84;20981;-81
2022/11/28 10:13:40;;;;;;;25.57;10.88;;;;;;;4.43;100.00;98518.89;1665368;84;22102;-78
2022/11/28 10:16:26;;;;;;;19.80;10.63;;;;;;;4.50;100.00;98523.66;1664803;83;21068;-81
2022/11/28 10:18:57;;;;;;;22.70;11.83;;;;;;;4.54;100.00;98506.06;1675177;82;21498;-81
2022/11/28 10:21:38;;;;;;;46.02;25.82;;;;;;;4.61;100.00;98505.94;1680621;82;21115;-81
2022/11/28 10:24:21;;;;;;;60.55;35.38;;;;;;;4.66;100.00;98505.56;1665923;84;21059;-78
2022/11/28 10:26:52;;;;;;;70.70;37.67;;;;;;;4.72;100.00;98503.30;1664982;84;21053;-81
2022/11/28 10:29:53;;;;;;;71.97;26.68;;;;;;;4.79;100.00;98508.58;1667708;83;21198;-81
2022/11/28 10:32:23;;;;;;;30.92;14.93;;;;;;;4.84;100.00;98502.50;1663203;83;21083;-81
2022/11/28 10:34:58;;;;;;;23.35;11.60;;;;;;;4.91;100.00;98504.56;1678508;84;21397;-81
2022/11/28 10:37:34;;;;;;;44.55;26.12;;;;;;;4.96;100.00;98493.42;1674967;84;20960;-81
2022/11/28 10:40:22;;;;;;;23.25;15.28;;;;;;;4.95;100.00;98489.61;1671738;84;21021;-78
2022/11/28 10:43:00;;;;;;;23.25;14.93;;;;;;;4.86;100.00;98499.05;1666740;84;21065;-78
2022/11/28 10:45:42;;;;;;;14.25;9.63;;;;;;;4.83;100.00;98484.23;1633258;86;21012;-78
2022/11/28 10:48:47;;;;;;;36.95;25.02;;;;;;;4.80;100.00;98490.08;1619865;86;21043;-78
2022/11/28 10:51:34;;;;;;;30.72;20.97;;;;;;;4.70;99.50;98483.93;1575617;89;21512;-81
2022/11/28 10:54:12;;;;;;;19.52;8.73;;;;;;;4.69;100.00;98484.95;1603055;87;21615;-78
2022/11/28 10:56:59;;;;;;;25.52;15.10;;;;;;;4.70;100.00;98475.88;1653333;84;21439;-80
2022/11/28 10:59:53;;;;;;;30.57;17.65;;;;;;;4.70;100.00;98473.69;1680407;84;21040;-81
2022/11/28 11:02:44;;;;;;;18.80;10.95;;;;;;;4.69;100.00;98472.05;1683922;83;21004;-81
2022/11/28 11:05:21;;;;;;;43.20;24.90;;;;;;;4.69;99.11;98466.69;1679548;84;21051;-81
2022/11/28 11:07:51;;;;;;;23.40;12.58;;;;;;;4.70;96.96;98470.51;1692591;83;21035;-78
2022/11/28 11:10:30;;;;;;;24.50;14.35;;;;;;;4.71;97.47;98466.77;1674139;84;21044;-81
2022/11/28 11:12:57;;;;;;;23.18;11.35;;;;;;;4.73;98.25;98466.01;1673945;84;28114;-78
2022/11/28 11:15:30;;;;;;;39.90;24.77;;;;;;;4.72;97.98;98463.03;1683362;84;21420;-77
2022/11/28 11:18:02;;;;;;;13.68;9.33;;;;;;;4.68;95.80;98465.88;1674874;83;21146;-78
2022/11/28 11:20:38;;;;;;;9.03;5.70;;;;;;;4.63;93.12;98465.77;1663013;84;21095;-78
2022/11/28 11:23:16;;;;;;;11.28;8.28;;;;;;;4.67;98.05;98460.21;1671919;84;21093;-81
2022/11/28 11:25:54;;;;;;;16.50;6.77;;;;;;;4.66;94.81;98467.16;1670709;84;21055;-78
2022/11/28 11:28:34;;;;;;;13.85;7.70;;;;;;;4.68;96.75;98464.53;1671274;84;21426;-78
2022/11/28 11:31:04;;;;;;;13.48;8.68;;;;;;;4.72;99.22;98460.87;1663753;84;20976;-81
2022/11/28 11:33:35;;;;;;;19.10;10.48;;;;;;;4.71;91.75;98452.53;1677728;84;21367;-78
2022/11/28 11:36:03;;;;;;;57.80;11.33;;;;;;;4.75;92.38;98449.66;1673348;84;21076;-81
2022/11/28 11:38:33;;;;;;;24.52;7.00;;;;;;;4.79;94.29;98449.51;1674044;84;21093;-78
2022/11/28 11:41:28;;;;;;;19.00;6.78;;;;;;;4.86;97.12;98445.34;1674047;84;21016;-78